Time;durP1;ratioP1;P1;durP2;ratioP2;P2;SDS_P1;SDS_P2;PMS_P1;PMS_P2;Temp;Humidity;BMP_temperature;BMP_pressure;BME280_temperature;BME280_humidity;BME280_pressure;Samples;Min_cycle;Max_cycle;Signal;HPM_P1;HPM_P2
2022/05/26 00:01:13;;;;;;;31.20;7.37;;;14.90;99.90;;;;;;5114388;28;20705;-66
2022/05/26 00:03:43;;;;;;;31.83;7.73;;;14.90;99.90;;;;;;5114916;28;20046;-66
2022/05/26 00:06:11;;;;;;;34.80;8.27;;;14.90;99.90;;;;;;5114406;28;20278;-66
2022/05/26 00:08:38;;;;;;;31.43;7.47;;;14.90;99.90;;;;;;5114630;28;20282;-66
2022/05/26 00:11:10;;;;;;;36.37;8.23;;;14.90;99.90;;;;;;5114280;28;20273;-66
2022/05/26 00:13:37;;;;;;;32.10;8.07;;;14.90;99.90;;;;;;5114158;28;20313;-66
2022/05/26 00:16:04;;;;;;;34.10;8.30;;;14.90;99.90;;;;;;5114254;28;20697;-67
2022/05/26 00:18:29;;;;;;;32.77;8.00;;;14.80;99.90;;;;;;5096331;28;20362;-66
2022/05/26 00:20:55;;;;;;;29.27;7.83;;;14.80;99.90;;;;;;5114353;28;20753;-66
2022/05/26 00:23:21;;;;;;;32.97;7.30;;;14.80;99.90;;;;;;5113932;28;20060;-66
2022/05/26 00:25:47;;;;;;;30.67;7.60;;;14.80;99.90;;;;;;5114173;28;20048;-66
2022/05/26 00:28:12;;;;;;;34.57;8.13;;;14.70;99.90;;;;;;5113604;28;20040;-66
2022/05/26 00:30:38;;;;;;;42.00;8.67;;;14.70;99.90;;;;;;5114249;28;20395;-66
2022/05/26 00:33:06;;;;;;;38.10;8.40;;;14.70;99.90;;;;;;5095726;28;20046;-66
2022/05/26 00:35:34;;;;;;;36.33;7.83;;;14.60;99.90;;;;;;5113995;28;20044;-66
2022/05/26 00:38:04;;;;;;;40.87;8.70;;;14.60;99.90;;;;;;5113865;28;20773;-66
2022/05/26 00:40:31;;;;;;;30.43;7.20;;;14.60;99.90;;;;;;5113951;28;20273;-66
2022/05/26 00:42:57;;;;;;;30.87;8.10;;;14.60;99.90;;;;;;5113767;28;20426;-66
2022/05/26 00:45:44;;;;;;;38.77;8.03;;;14.60;99.90;;;;;;5113693;28;20293;-66
2022/05/26 00:48:14;;;;;;;34.73;7.43;;;14.60;99.90;;;;;;5111782;28;20669;-66
2022/05/26 00:50:50;;;;;;;30.60;7.37;;;14.60;99.90;;;;;;5113784;28;20303;-66
2022/05/26 00:53:30;;;;;;;43.27;7.90;;;14.60;99.90;;;;;;5112966;28;20278;-66
2022/05/26 00:56:01;;;;;;;30.93;8.07;;;14.60;99.90;;;;;;5095950;28;20780;-66
2022/05/26 00:58:30;;;;;;;34.43;7.70;;;14.60;99.90;;;;;;5113442;28;20333;-66
2022/05/26 01:00:58;;;;;;;41.17;7.67;;;14.50;99.90;;;;;;5113578;28;20290;-66
2022/05/26 01:03:24;;;;;;;35.33;8.23;;;14.50;99.90;;;;;;5113226;28;20293;-66
2022/05/26 01:06:06;;;;;;;38.23;8.70;;;14.60;99.90;;;;;;5113413;28;20765;-66
2022/05/26 01:08:46;;;;;;;34.67;7.77;;;14.60;99.90;;;;;;5113381;28;20043;-66
2022/05/26 01:11:12;;;;;;;33.37;7.50;;;14.60;99.90;;;;;;5113348;28;20273;-67
2022/05/26 01:13:44;;;;;;;35.60;8.30;;;14.60;99.90;;;;;;5113366;28;20673;-66
2022/05/26 01:16:29;;;;;;;46.30;8.40;;;14.60;99.90;;;;;;5112917;28;20047;-67
2022/05/26 01:19:19;;;;;;;43.15;8.93;;;14.50;99.90;;;;;;5113393;28;20586;-66
2022/05/26 01:21:56;;;;;;;32.57;7.67;;;14.60;99.90;;;;;;5113758;28;20055;-66
2022/05/26 01:25:02;;;;;;;38.40;7.97;;;14.60;99.90;;;;;;5113119;28;20678;-67
2022/05/26 01:27:33;;;;;;;44.73;8.97;;;14.60;99.90;;;;;;5096441;28;20317;-66
2022/05/26 01:30:23;;;;;;;41.60;8.73;;;14.50;99.90;;;;;;5113419;28;20320;-66
2022/05/26 01:33:07;;;;;;;36.90;8.67;;;14.50;99.90;;;;;;5113232;28;20793;-66
2022/05/26 01:35:53;;;;;;;39.83;8.73;;;14.50;99.90;;;;;;5112875;28;20741;-66
2022/05/26 01:38:33;;;;;;;40.47;8.77;;;14.50;99.90;;;;;;5094751;28;20324;-66
2022/05/26 01:41:10;;;;;;;35.37;8.47;;;14.50;99.90;;;;;;5094999;28;20297;-66
2022/05/26 01:43:47;;;;;;;34.90;7.53;;;14.50;99.90;;;;;;5113117;28;20277;-66
2022/05/26 01:46:18;;;;;;;40.70;7.77;;;14.50;99.90;;;;;;5112979;28;20299;-67
2022/05/26 01:48:53;;;;;;;33.67;8.43;;;14.50;99.90;;;;;;5113107;28;20297;-66
2022/05/26 01:51:33;;;;;;;41.53;8.70;;;14.50;99.90;;;;;;5112767;28;20351;-66
2022/05/26 01:54:21;;;;;;;32.43;7.00;;;14.50;99.90;;;;;;5113144;28;20758;-66
2022/05/26 01:57:08;;;;;;;30.13;7.20;;;14.50;99.90;;;;;;5113328;28;20274;-66
2022/05/26 01:59:46;;;;;;;32.10;7.67;;;14.50;99.90;;;;;;5112632;28;20687;-66
2022/05/26 02:02:19;;;;;;;34.83;7.57;;;14.50;99.90;;;;;;5112757;28;20777;-66
2022/05/26 02:04:52;;;;;;;30.53;8.10;;;14.40;99.90;;;;;;5113262;28;20278;-66
2022/05/26 02:07:44;;;;;;;34.40;8.20;;;14.40;99.90;;;;;;5116688;28;20293;-66
2022/05/26 02:10:16;;;;;;;31.73;6.93;;;14.40;99.90;;;;;;5116424;28;20293;-66
2022/05/26 02:12:49;;;;;;;34.53;7.70;;;14.40;99.90;;;;;;5081977;28;20714;-66
2022/05/26 02:15:18;;;;;;;35.87;8.90;;;14.40;99.90;;;;;;5116811;28;20514;-67
2022/05/26 02:18:21;;;;;;;29.03;6.40;;;14.40;99.90;;;;;;5116780;28;20634;-66
2022/05/26 02:20:58;;;;;;;36.83;7.53;;;14.40;99.90;;;;;;5116561;28;20297;-66
2022/05/26 02:23:37;;;;;;;27.83;6.13;;;14.30;99.90;;;;;;5098616;28;20377;-66
2022/05/26 02:26:04;;;;;;;26.60;5.70;;;14.30;99.90;;;;;;5116561;28;20278;-66
2022/05/26 02:31:18;;;;;;;23.10;5.17;;;14.30;99.90;;;;;;5116390;28;20314;-67
2022/05/26 02:33:45;;;;;;;20.00;4.80;;;14.20;99.90;;;;;;5116561;28;20675;-66
2022/05/26 02:36:11;;;;;;;23.40;5.57;;;14.20;99.90;;;;;;5116531;28;20282;-66
2022/05/26 02:38:37;;;;;;;17.67;4.10;;;14.20;99.90;;;;;;5116039;28;20273;-66
2022/05/26 02:41:02;;;;;;;15.57;4.33;;;14.20;99.90;;;;;;5116320;28;20277;-66
2022/05/26 02:43:30;;;;;;;17.10;4.53;;;14.20;99.90;;;;;;5115942;28;20515;-66
2022/05/26 02:46:09;;;;;;;15.70;3.20;;;14.20;99.90;;;;;;5116107;28;20043;-66
2022/05/26 02:48:59;;;;;;;17.67;3.77;;;14.20;99.90;;;;;;5115994;28;20282;-66
2022/05/26 02:51:37;;;;;;;13.53;3.23;;;14.20;99.90;;;;;;5097911;28;20294;-67
2022/05/26 02:54:24;;;;;;;14.83;3.23;;;14.20;99.90;;;;;;5116155;28;20361;-66
2022/05/26 02:56:55;;;;;;;15.27;3.57;;;14.20;99.90;;;;;;5116187;28;20285;-66
2022/05/26 03:00:02;;;;;;;13.93;2.80;;;14.20;99.90;;;;;;5115608;28;20795;-67
2022/05/26 03:02:46;;;;;;;13.43;2.57;;;14.10;99.90;;;;;;5107017;28;20294;-66
2022/05/26 03:05:18;;;;;;;14.37;3.50;;;14.10;99.90;;;;;;5081174;28;20613;-66
2022/05/26 03:07:47;;;;;;;16.40;2.67;;;14.10;99.90;;;;;;5115544;28;20293;-66
2022/05/26 03:10:15;;;;;;;9.87;2.33;;;14.10;99.90;;;;;;5115743;28;20313;-66
2022/05/26 03:12:40;;;;;;;12.33;2.20;;;14.10;99.90;;;;;;5115349;28;20472;-66
2022/05/26 03:15:08;;;;;;;10.20;2.50;;;14.00;99.90;;;;;;5115484;28;20373;-66
2022/05/26 03:17:34;;;;;;;11.40;2.37;;;14.00;99.90;;;;;;5115088;28;20136;-66
2022/05/26 03:20:00;;;;;;;9.13;2.30;;;13.90;99.90;;;;;;5115491;28;20292;-66
2022/05/26 03:22:26;;;;;;;10.47;2.30;;;13.90;99.90;;;;;;5115229;28;20281;-66
2022/05/26 03:24:53;;;;;;;11.63;2.10;;;13.90;99.90;;;;;;5115373;28;20055;-66
2022/05/26 03:27:19;;;;;;;18.37;2.50;;;13.80;99.90;;;;;;5115266;28;20052;-66
2022/05/26 03:29:45;;;;;;;12.37;2.33;;;13.80;99.90;;;;;;5115013;28;20610;-66
2022/05/26 03:32:11;;;;;;;12.93;2.33;;;13.70;99.90;;;;;;5115585;28;20231;-66
2022/05/26 03:42:51;;;;;;;9.68;2.13;;;13.60;99.90;;;;;;5115279;28;20300;-66
2022/05/26 03:45:20;;;;;;;9.90;2.27;;;13.60;99.90;;;;;;5115089;28;20039;-66
2022/05/26 03:47:46;;;;;;;12.10;2.50;;;13.60;99.90;;;;;;5114617;28;20725;-66
2022/05/26 03:50:12;;;;;;;12.07;2.33;;;13.60;99.90;;;;;;5114825;28;20376;-66
2022/05/26 03:52:38;;;;;;;11.30;2.90;;;13.60;99.90;;;;;;5114488;28;20054;-66
2022/05/26 03:55:04;;;;;;;10.17;2.10;;;13.60;99.90;;;;;;5115014;28;20097;-66
2022/05/26 03:57:31;;;;;;;7.97;1.90;;;13.60;99.90;;;;;;5114462;28;20481;-66
2022/05/26 03:59:57;;;;;;;11.37;2.67;;;13.60;99.90;;;;;;5114838;28;20270;-66
2022/05/26 04:02:24;;;;;;;8.87;1.90;;;13.60;99.90;;;;;;5114794;28;20269;-66
2022/05/26 04:04:50;;;;;;;8.20;1.90;;;13.60;99.90;;;;;;5114298;28;20328;-67
2022/05/26 04:07:16;;;;;;;11.60;2.33;;;13.60;99.90;;;;;;5114421;28;20626;-66
2022/05/26 04:09:42;;;;;;;12.00;2.47;;;13.60;99.90;;;;;;5114170;28;20310;-67
2022/05/26 04:12:09;;;;;;;8.30;1.97;;;13.70;99.90;;;;;;5114474;28;20051;-67
2022/05/26 04:14:35;;;;;;;11.53;2.23;;;13.70;99.90;;;;;;5114320;28;20057;-67
2022/05/26 04:17:01;;;;;;;10.50;2.30;;;13.70;99.90;;;;;;5114397;28;20280;-66
2022/05/26 04:19:27;;;;;;;11.77;2.67;;;13.70;99.90;;;;;;5114135;28;20645;-66
2022/05/26 04:24:37;;;;;;;10.93;2.30;;;13.70;99.90;;;;;;5114145;28;20051;-67
2022/05/26 04:27:04;;;;;;;12.70;2.80;;;13.70;99.90;;;;;;5113896;28;20297;-67
2022/05/26 04:29:31;;;;;;;9.40;2.30;;;13.70;99.90;;;;;;5113676;28;20048;-68
2022/05/26 04:31:57;;;;;;;10.70;2.23;;;13.80;99.90;;;;;;5114155;28;20368;-67
2022/05/26 04:34:23;;;;;;;11.70;1.80;;;13.80;99.90;;;;;;5113925;28;20360;-67
2022/05/26 04:36:48;;;;;;;10.00;1.90;;;13.80;99.90;;;;;;5095709;28;20040;-67
2022/05/26 04:39:16;;;;;;;12.30;2.00;;;13.80;99.90;;;;;;5114137;28;20500;-66
2022/05/26 04:41:42;;;;;;;9.70;2.17;;;13.80;99.90;;;;;;5095615;28;20043;-67
2022/05/26 04:44:18;;;;;;;15.37;2.13;;;13.90;99.90;;;;;;5113948;28;20285;-66
2022/05/26 04:46:44;;;;;;;9.27;2.13;;;13.90;99.90;;;;;;5113445;28;20302;-67
2022/05/26 04:49:10;;;;;;;10.30;2.43;;;14.00;99.90;;;;;;5079268;28;20278;-67
2022/05/26 04:51:39;;;;;;;10.40;1.60;;;14.10;99.90;;;;;;5079009;28;20051;-67
2022/05/26 04:54:06;;;;;;;8.43;1.53;;;14.10;99.90;;;;;;5113814;28;20277;-66
2022/05/26 04:56:32;;;;;;;7.10;1.50;;;14.20;99.90;;;;;;5113783;28;20284;-67
2022/05/26 04:58:58;;;;;;;8.17;1.47;;;14.30;99.90;;;;;;5113560;28;20277;-67
2022/05/26 05:01:24;;;;;;;7.80;1.57;;;14.40;99.90;;;;;;5113551;28;20120;-67
2022/05/26 05:03:50;;;;;;;11.77;2.13;;;14.50;99.90;;;;;;5113447;28;20281;-67
2022/05/26 05:06:17;;;;;;;10.97;1.90;;;14.70;99.90;;;;;;5113644;28;20284;-67
2022/05/26 05:08:43;;;;;;;5.93;1.50;;;14.70;99.90;;;;;;5113362;28;20475;-67
2022/05/26 05:11:10;;;;;;;10.63;1.83;;;14.90;99.90;;;;;;5113553;28;20765;-67
2022/05/26 05:13:37;;;;;;;8.50;2.03;;;15.00;99.90;;;;;;5113165;28;20317;-67
2022/05/26 05:16:08;;;;;;;11.30;1.57;;;15.10;99.90;;;;;;5113393;28;20281;-67
2022/05/26 05:18:34;;;;;;;10.43;1.67;;;15.20;99.90;;;;;;5113832;28;20606;-67
2022/05/26 05:21:07;;;;;;;11.07;2.20;;;15.30;99.90;;;;;;5113291;28;20285;-67
2022/05/26 05:23:37;;;;;;;8.43;1.83;;;15.40;99.90;;;;;;5113414;28;20085;-67
2022/05/26 05:26:04;;;;;;;8.33;2.10;;;15.60;99.90;;;;;;5113325;28;20288;-67
2022/05/26 05:28:33;;;;;;;9.17;2.00;;;15.70;99.90;;;;;;5113066;28;20362;-67
2022/05/26 05:31:09;;;;;;;8.93;1.70;;;15.80;99.90;;;;;;5112841;28;20277;-67
2022/05/26 05:33:41;;;;;;;8.00;1.70;;;15.80;99.90;;;;;;5095505;28;20715;-67
2022/05/26 05:36:16;;;;;;;6.83;1.77;;;15.90;99.90;;;;;;5095540;28;20373;-67
2022/05/26 05:38:43;;;;;;;8.03;2.07;;;16.10;99.90;;;;;;5113264;28;20043;-67
2022/05/26 05:41:10;;;;;;;8.23;1.70;;;16.20;99.90;;;;;;5117463;28;20372;-67
2022/05/26 05:43:36;;;;;;;8.63;1.57;;;16.40;99.90;;;;;;5117592;28;20486;-68
2022/05/26 05:46:02;;;;;;;11.07;1.87;;;16.60;99.90;;;;;;5117336;28;20052;-68
2022/05/26 05:48:28;;;;;;;7.67;1.60;;;;;;;;;;5117470;28;20056;-67
2022/05/26 05:50:54;;;;;;;6.57;1.60;;;18.70;99.90;;;;;;5117024;28;20043;-68
2022/05/26 05:53:21;;;;;;;8.33;2.00;;;20.10;99.90;;;;;;5117200;28;20099;-68
2022/05/26 05:55:47;;;;;;;7.50;2.00;;;;;;;;;;5116824;28;20079;-68
2022/05/26 05:58:12;;;;;;;6.90;2.70;;;22.40;99.90;;;;;;5099465;28;20051;-68
2022/05/26 06:00:40;;;;;;;6.67;1.67;;;23.10;99.90;;;;;;5117191;28;20137;-68
2022/05/26 06:03:06;;;;;;;10.50;2.60;;;24.00;97.10;;;;;;5098972;28;20058;-68
2022/05/26 06:05:33;;;;;;;6.33;1.67;;;24.70;93.20;;;;;;5098909;28;20105;-68
2022/05/26 06:07:59;;;;;;;6.60;1.53;;;;;;;;;;5116573;28;20044;-68
2022/05/26 06:10:25;;;;;;;7.83;1.70;;;24.00;69.30;;;;;;5116867;28;20392;-67
2022/05/26 06:12:51;;;;;;;10.03;1.97;;;23.00;70.90;;;;;;5116772;28;20046;-68
2022/05/26 06:15:18;;;;;;;7.60;1.90;;;22.20;76.20;;;;;;5117146;28;20395;-68
2022/05/26 06:17:44;;;;;;;6.13;2.03;;;21.70;79.60;;;;;;5116618;28;20042;-68
2022/05/26 06:20:11;;;;;;;8.73;1.83;;;21.30;84.00;;;;;;5098448;28;20048;-67
2022/05/26 06:22:40;;;;;;;10.30;1.60;;;20.90;85.00;;;;;;5116545;28;20491;-68
2022/05/26 06:25:07;;;;;;;6.93;1.97;;;;;;;;;;5116779;28;20506;-67
2022/05/26 06:30:20;;;;;;;7.90;2.00;;;19.40;99.20;;;;;;5116631;28;20048;-67
2022/05/26 06:38:22;;;;;;;5.50;1.80;;;18.60;97.00;;;;;;5116481;28;20055;-67
2022/05/26 06:40:49;;;;;;;7.73;2.03;;;18.40;97.10;;;;;;5116088;28;20141;-67
2022/05/26 06:43:14;;;;;;;9.43;2.40;;;18.30;97.90;;;;;;5116284;28;20043;-67
2022/05/26 06:45:41;;;;;;;7.80;1.70;;;18.20;97.70;;;;;;5116070;28;20051;-67
2022/05/26 06:48:07;;;;;;;7.73;1.90;;;18.10;98.10;;;;;;5097761;28;20185;-67
2022/05/26 06:50:34;;;;;;;6.40;2.00;;;17.90;99.20;;;;;;5115551;28;20130;-67
2022/05/26 06:52:59;;;;;;;8.97;2.13;;;17.80;99.70;;;;;;5116011;28;20058;-67
2022/05/26 06:55:26;;;;;;;6.27;1.70;;;17.80;99.90;;;;;;5116257;28;20040;-67
2022/05/26 06:57:51;;;;;;;6.57;1.70;;;17.90;99.90;;;;;;5115592;28;20043;-67
2022/05/26 07:00:18;;;;;;;7.80;2.03;;;18.10;99.90;;;;;;5097913;28;20127;-66
2022/05/26 07:02:45;;;;;;;9.83;2.00;;;18.20;99.90;;;;;;5116053;28;20043;-66
2022/05/26 07:05:12;;;;;;;7.67;2.20;;;18.50;99.90;;;;;;5115641;28;20515;-67
2022/05/26 07:07:41;;;;;;;11.33;2.13;;;18.80;99.90;;;;;;5116070;28;20043;-67
2022/05/26 07:10:09;;;;;;;9.10;2.10;;;18.90;99.00;;;;;;5115453;28;20043;-67
2022/05/26 07:12:35;;;;;;;10.03;1.80;;;19.00;98.00;;;;;;5115806;28;20082;-67
2022/05/26 07:15:03;;;;;;;9.67;2.23;;;19.00;97.90;;;;;;5096898;28;20044;-67
2022/05/26 07:17:30;;;;;;;6.17;1.80;;;19.00;97.20;;;;;;5114957;28;20036;-67
2022/05/26 07:19:55;;;;;;;8.60;1.60;;;18.90;96.60;;;;;;5096361;28;20055;-67
2022/05/26 07:22:22;;;;;;;8.83;1.90;;;18.90;96.60;;;;;;5115100;28;20175;-67
2022/05/26 07:24:49;;;;;;;7.03;2.30;;;18.90;97.30;;;;;;5115031;28;20047;-66
2022/05/26 07:27:16;;;;;;;8.63;2.10;;;18.80;96.90;;;;;;5114433;28;20039;-67
2022/05/26 07:29:41;;;;;;;9.33;2.37;;;18.70;96.10;;;;;;5097097;28;20047;-67
2022/05/26 07:32:07;;;;;;;10.60;2.00;;;18.60;96.90;;;;;;5114846;28;20088;-67
2022/05/26 07:34:33;;;;;;;9.43;2.03;;;18.60;97.20;;;;;;5114891;28;20043;-66
2022/05/26 07:42:32;;;;;;;7.05;1.60;;;18.50;96.70;;;;;;5115325;28;20043;-66
2022/05/26 07:44:59;;;;;;;9.07;2.40;;;18.60;96.80;;;;;;5114883;28;20043;-67
2022/05/26 07:47:27;;;;;;;7.33;2.03;;;18.60;96.70;;;;;;5115042;28;20043;-67
2022/05/26 07:49:53;;;;;;;5.80;1.53;;;18.60;96.30;;;;;;5115064;28;20118;-66
2022/05/26 07:52:20;;;;;;;7.23;1.57;;;18.60;97.20;;;;;;5114975;28;20140;-67
2022/05/26 07:54:46;;;;;;;8.03;1.80;;;18.60;96.50;;;;;;5115114;28;20046;-66
2022/05/26 07:57:25;;;;;;;7.33;1.70;;;18.60;94.60;;;;;;5114732;28;20044;-66
2022/05/26 07:59:52;;;;;;;8.30;2.00;;;18.70;94.90;;;;;;5115052;28;20403;-67
2022/05/26 08:02:19;;;;;;;6.27;1.73;;;18.70;95.60;;;;;;5113700;28;20506;-67
2022/05/26 08:04:45;;;;;;;11.53;2.40;;;18.90;96.20;;;;;;5114416;28;20067;-66
2022/05/26 08:07:11;;;;;;;6.73;1.53;;;19.00;95.40;;;;;;5114235;28;20457;-66
2022/05/26 08:09:40;;;;;;;8.37;1.80;;;18.90;92.50;;;;;;5114808;28;20050;-66
2022/05/26 08:12:11;;;;;;;6.70;1.80;;;18.90;92.60;;;;;;5114434;28;20443;-67
2022/05/26 08:14:38;;;;;;;8.37;1.80;;;18.90;94.20;;;;;;5114852;28;20044;-67
2022/05/26 08:17:04;;;;;;;8.40;2.13;;;19.20;94.00;;;;;;5114260;28;20440;-67
2022/05/26 08:19:30;;;;;;;11.27;2.23;;;19.70;94.60;;;;;;5096240;28;20056;-67
2022/05/26 08:21:56;;;;;;;7.90;1.90;;;20.60;92.80;;;;;;5114552;28;20131;-66
2022/05/26 08:24:24;;;;;;;8.13;1.80;;;21.10;90.00;;;;;;5114161;28;20130;-67
2022/05/26 08:26:50;;;;;;;5.10;1.50;;;21.30;82.90;;;;;;5096495;28;20040;-67
2022/05/26 08:29:16;;;;;;;4.37;1.50;;;21.40;79.40;;;;;;5096100;28;20055;-66
2022/05/26 08:31:42;;;;;;;9.83;2.03;;;21.20;74.80;;;;;;5114148;28;20043;-67
2022/05/26 08:34:08;;;;;;;4.77;1.53;;;21.30;77.20;;;;;;5113770;28;20046;-67
2022/05/26 08:36:35;;;;;;;4.47;1.33;;;21.40;75.60;;;;;;5079222;28;20118;-67
2022/05/26 08:39:02;;;;;;;4.07;1.50;;;21.40;70.30;;;;;;5114122;28;20079;-68
2022/05/26 08:41:42;;;;;;;4.03;1.30;;;21.40;67.50;;;;;;5114121;28;20487;-68
2022/05/26 08:44:14;;;;;;;6.03;1.57;;;21.30;66.30;;;;;;5111669;28;20043;-67
2022/05/26 08:46:44;;;;;;;7.50;1.80;;;21.00;65.10;;;;;;5113212;28;20047;-67
2022/05/26 08:49:33;;;;;;;6.60;1.60;;;20.90;64.50;;;;;;5113489;28;20119;-67
2022/05/26 08:52:12;;;;;;;7.00;1.43;;;20.80;66.50;;;;;;5105652;28;20433;-67
2022/05/26 08:55:10;;;;;;;6.00;1.40;;;20.70;66.60;;;;;;5113932;28;20105;-67
2022/05/26 08:57:41;;;;;;;4.87;1.30;;;20.60;66.70;;;;;;5079111;28;20499;-67
2022/05/26 09:00:15;;;;;;;5.20;1.40;;;20.40;65.90;;;;;;5113773;28;20122;-68
2022/05/26 09:02:41;;;;;;;8.07;1.75;;;20.40;65.80;;;;;;5114209;28;20055;-67
2022/05/26 09:05:16;;;;;;;4.83;1.10;;;20.20;65.20;;;;;;5095456;28;20376;-68
2022/05/26 09:13:39;;;;;;;7.20;1.67;;;20.20;66.60;;;;;;5113362;28;20048;-68
2022/05/26 09:16:08;;;;;;;4.90;1.67;;;20.30;68.10;;;;;;5113161;28;20044;-69
2022/05/26 09:18:35;;;;;;;6.90;1.77;;;20.40;67.40;;;;;;5113364;28;20047;-66
2022/05/26 09:21:22;;;;;;;5.07;1.40;;;20.50;66.50;;;;;;5113712;28;20431;-67
2022/05/26 09:23:48;;;;;;;4.63;1.30;;;20.60;64.90;;;;;;5095550;28;20484;-70
2022/05/26 09:26:19;;;;;;;5.97;1.83;;;20.60;64.60;;;;;;5112718;28;20555;-69
2022/05/26 09:28:53;;;;;;;7.00;1.43;;;20.50;64.40;;;;;;5113640;28;20399;-69
2022/05/26 09:31:32;;;;;;;6.30;1.70;;;20.40;65.30;;;;;;5094499;28;20074;-69
2022/05/26 09:34:04;;;;;;;4.13;1.30;;;20.30;66.70;;;;;;5113092;28;20048;-67
2022/05/26 09:37:00;;;;;;;10.33;1.73;;;20.40;68.30;;;;;;5113035;28;20047;-68
2022/05/26 09:39:34;;;;;;;7.63;1.67;;;20.40;66.60;;;;;;5103406;28;20404;-67
2022/05/26 09:42:02;;;;;;;5.20;1.57;;;20.40;67.60;;;;;;5113309;28;20040;-67
2022/05/26 09:44:47;;;;;;;7.43;1.30;;;20.40;68.90;;;;;;5112903;28;20177;-68
2022/05/26 09:47:28;;;;;;;8.57;1.92;;;20.60;69.50;;;;;;5112668;28;20065;-69
2022/05/26 09:49:57;;;;;;;4.10;1.50;;;20.60;67.60;;;;;;5113307;28;20478;-68
2022/05/26 09:52:26;;;;;;;4.90;1.43;;;20.60;67.60;;;;;;5112924;28;20118;-69
2022/05/26 09:55:15;;;;;;;8.13;1.50;;;20.70;67.20;;;;;;5113258;28;20129;-73
2022/05/26 09:57:41;;;;;;;5.97;1.37;;;20.80;66.20;;;;;;5112955;28;20043;-68
2022/05/26 10:00:16;;;;;;;8.67;1.70;;;20.70;66.30;;;;;;5113105;28;20505;-71
2022/05/26 10:02:44;;;;;;;6.67;1.60;;;20.70;67.20;;;;;;5113351;28;20044;-69
2022/05/26 10:05:29;;;;;;;7.77;1.90;;;20.70;67.80;;;;;;5112111;28;20039;-74
2022/05/26 10:08:41;;;;;;;5.50;1.70;;;20.70;68.00;;;;;;5092072;28;20044;-68
2022/05/26 10:11:33;;;;;;;7.17;2.03;;;20.60;67.60;;;;;;5075460;28;20288;-70
2022/05/26 10:14:26;;;;;;;7.37;1.50;;;20.50;68.40;;;;;;5110339;28;20056;-70
2022/05/26 10:17:02;;;;;;;5.20;1.70;;;20.40;70.30;;;;;;5113215;28;20132;-68
2022/05/26 10:19:51;;;;;;;8.63;2.23;;;20.40;71.10;;;;;;5112898;28;20078;-68
2022/05/26 10:22:22;;;;;;;7.60;1.93;;;20.30;70.60;;;;;;5112718;28;20097;-68
2022/05/26 10:25:04;;;;;;;5.93;1.70;;;20.10;71.60;;;;;;5112092;28;20044;-68
2022/05/26 10:27:49;;;;;;;8.30;1.93;;;20.10;73.50;;;;;;5115116;28;20038;-69
2022/05/26 10:31:01;;;;;;;8.15;1.75;;;20.00;77.00;;;;;;5113606;28;20055;-67
2022/05/26 10:33:32;;;;;;;7.80;1.93;;;20.00;76.90;;;;;;5053420;28;20045;-68
2022/05/26 10:36:30;;;;;;;5.00;1.50;;;20.00;78.20;;;;;;5087990;28;20052;-68
2022/05/26 10:39:32;;;;;;;5.10;1.60;;;20.10;77.30;;;;;;5116574;28;20441;-68
2022/05/26 10:42:06;;;;;;;8.73;1.83;;;20.10;77.30;;;;;;5069751;28;20559;-68
2022/05/26 10:44:47;;;;;;;5.18;1.60;;;20.10;78.10;;;;;;5116388;28;20054;-68
2022/05/26 10:47:24;;;;;;;7.37;1.97;;;20.10;78.90;;;;;;5116383;28;20391;-68
2022/05/26 10:49:57;;;;;;;6.60;2.10;;;20.00;80.20;;;;;;5098217;28;20499;-68
2022/05/26 10:52:40;;;;;;;11.40;2.10;;;20.10;82.70;;;;;;5097906;28;20429;-68
2022/05/26 10:55:12;;;;;;;8.60;2.13;;;20.10;85.50;;;;;;5098145;28;20059;-67
2022/05/26 10:57:55;;;;;;;6.03;1.77;;;20.00;83.80;;;;;;5115805;28;20040;-67
2022/05/26 11:00:27;;;;;;;10.07;2.13;;;19.90;84.60;;;;;;5115633;28;20495;-68
2022/05/26 11:03:07;;;;;;;7.70;2.30;;;19.80;86.50;;;;;;5116242;28;20090;-68
2022/05/26 11:05:43;;;;;;;9.50;2.10;;;19.80;88.90;;;;;;5115685;28;20109;-68
2022/05/26 11:08:32;;;;;;;7.97;1.97;;;19.80;89.10;;;;;;5115728;28;20047;-67
2022/05/26 11:11:12;;;;;;;7.70;2.10;;;19.80;85.70;;;;;;5116028;28;20044;-68
2022/05/26 11:17:21;;;;;;;8.10;2.10;;;19.80;84.50;;;;;;5115714;28;20117;-68
2022/05/26 11:19:50;;;;;;;7.57;1.80;;;19.80;86.30;;;;;;5115684;28;20056;-70
2022/05/26 11:22:17;;;;;;;6.90;1.93;;;19.80;82.60;;;;;;5115822;28;20055;-68
2022/05/26 11:24:50;;;;;;;5.53;1.90;;;19.70;84.00;;;;;;5115328;28;20051;-68
2022/05/26 11:27:27;;;;;;;6.50;1.60;;;19.80;85.60;;;;;;5115446;28;20043;-68
2022/05/26 11:36:07;;;;;;;8.30;2.63;;;20.20;85.00;;;;;;5114543;28;20083;-68
2022/05/26 11:38:42;;;;;;;6.07;1.80;;;20.30;84.60;;;;;;5112922;28;20529;-68
2022/05/26 11:41:13;;;;;;;9.60;1.90;;;20.40;81.10;;;;;;5115553;28;20048;-68
2022/05/26 11:43:56;;;;;;;10.63;2.03;;;20.30;81.40;;;;;;5115242;28;20058;-68
2022/05/26 11:46:56;;;;;;;9.33;2.20;;;20.30;84.20;;;;;;5115341;28;20047;-68
2022/05/26 11:49:45;;;;;;;13.90;2.53;;;20.20;83.60;;;;;;5115234;28;20594;-68
2022/05/26 11:52:31;;;;;;;8.20;1.93;;;20.20;85.20;;;;;;5084848;28;20144;-68
2022/05/26 11:55:01;;;;;;;6.90;2.17;;;20.20;86.40;;;;;;5104125;28;20051;-68
2022/05/26 11:57:32;;;;;;;8.93;1.93;;;20.20;88.30;;;;;;5114882;28;20514;-69
2022/05/26 12:00:20;;;;;;;8.70;1.90;;;20.30;89.50;;;;;;5115204;28;20047;-68
2022/05/26 12:02:50;;;;;;;6.27;1.90;;;20.40;84.70;;;;;;5114781;28;20051;-68
2022/05/26 12:05:28;;;;;;;7.83;1.90;;;20.30;86.50;;;;;;5115116;28;20051;-68
2022/05/26 12:07:58;;;;;;;5.87;2.50;;;20.30;88.90;;;;;;5115113;28;20048;-68
2022/05/26 12:10:28;;;;;;;6.40;1.80;;;20.40;90.10;;;;;;5115025;28;20093;-68
2022/05/26 12:13:20;;;;;;;9.23;1.93;;;20.50;90.00;;;;;;5096734;28;20123;-68
2022/05/26 12:16:04;;;;;;;5.97;2.07;;;20.50;84.40;;;;;;5114619;28;20051;-68
2022/05/26 12:18:58;;;;;;;7.03;1.73;;;20.50;83.60;;;;;;5096047;28;20036;-69
2022/05/26 12:21:30;;;;;;;8.97;2.00;;;20.40;85.20;;;;;;5114548;28;20637;-68
2022/05/26 12:23:57;;;;;;;7.37;2.30;;;20.30;82.40;;;;;;5114916;28;20089;-68
2022/05/26 12:26:39;;;;;;;5.90;1.80;;;20.30;81.30;;;;;;5114445;28;20176;-68
2022/05/26 12:29:43;;;;;;;7.17;2.40;;;20.30;80.60;;;;;;5079570;28;20043;-68
2022/05/26 12:32:15;;;;;;;11.47;2.17;;;20.10;81.10;;;;;;5114680;28;20077;-69
2022/05/26 12:34:59;;;;;;;9.23;2.27;;;20.10;81.40;;;;;;5114358;28;20058;-69
2022/05/26 12:37:37;;;;;;;5.53;1.77;;;20.20;82.10;;;;;;5114555;28;20080;-68
2022/05/26 12:40:27;;;;;;;7.83;1.90;;;20.40;81.50;;;;;;5114369;28;20040;-68
2022/05/26 12:43:01;;;;;;;6.40;2.10;;;20.40;79.20;;;;;;5114202;28;20051;-68
2022/05/26 12:45:45;;;;;;;7.90;1.70;;;20.50;81.20;;;;;;5114378;28;20050;-68
2022/05/26 12:48:57;;;;;;;8.45;2.10;;;20.50;80.50;;;;;;5113841;28;20043;-69
2022/05/26 12:51:24;;;;;;;8.47;2.43;;;20.50;81.00;;;;;;5085072;28;20052;-68
2022/05/26 12:53:54;;;;;;;8.40;1.87;;;20.50;77.40;;;;;;5095767;28;20051;-69
2022/05/26 12:56:45;;;;;;;12.10;2.10;;;20.50;76.50;;;;;;5114320;28;20047;-68
2022/05/26 12:59:14;;;;;;;9.67;2.27;;;20.50;77.00;;;;;;5114104;28;20088;-68
2022/05/26 13:01:40;;;;;;;7.93;2.10;;;20.40;79.50;;;;;;5113809;28;20396;-69
2022/05/26 13:04:09;;;;;;;8.87;2.10;;;20.40;79.30;;;;;;5113882;28;20052;-68
2022/05/26 13:06:44;;;;;;;8.13;2.27;;;20.30;81.60;;;;;;5113552;28;20040;-68
2022/05/26 13:09:30;;;;;;;7.47;2.00;;;20.30;85.00;;;;;;5113590;28;20533;-68
2022/05/26 13:12:05;;;;;;;8.93;2.10;;;20.40;87.00;;;;;;5113658;28;20086;-68
2022/05/26 13:14:34;;;;;;;7.20;1.93;;;20.40;86.50;;;;;;5113720;28;20047;-68
2022/05/26 13:17:11;;;;;;;7.20;2.43;;;20.50;83.00;;;;;;5113741;28;20491;-69
2022/05/26 13:19:52;;;;;;;9.07;2.40;;;20.40;83.30;;;;;;5113336;28;20060;-68
2022/05/26 13:22:31;;;;;;;7.17;1.93;;;20.40;82.30;;;;;;5113684;28;20495;-68
2022/05/26 13:25:08;;;;;;;9.30;2.23;;;20.30;81.60;;;;;;5113461;28;20547;-67
2022/05/26 13:27:47;;;;;;;6.73;2.20;;;20.20;83.00;;;;;;5113425;28;20046;-68
2022/05/26 13:33:07;;;;;;;8.70;2.20;;;20.00;85.40;;;;;;5113862;28;20043;-68
2022/05/26 13:35:39;;;;;;;11.20;3.03;;;20.00;84.60;;;;;;5113574;28;20501;-69
2022/05/26 13:38:19;;;;;;;8.33;2.57;;;20.10;83.40;;;;;;5113452;28;20122;-67
2022/05/26 13:40:45;;;;;;;8.67;2.40;;;20.00;85.70;;;;;;5112964;28;20585;-68
2022/05/26 13:43:12;;;;;;;10.37;3.27;;;20.00;86.10;;;;;;5113391;28;20130;-69
2022/05/26 13:45:41;;;;;;;9.57;2.33;;;20.00;87.40;;;;;;5113187;28;20383;-69
2022/05/26 13:48:20;;;;;;;12.30;3.87;;;19.90;89.70;;;;;;5113175;28;20498;-69
2022/05/26 13:50:50;;;;;;;11.80;2.93;;;20.00;91.40;;;;;;5113009;28;20043;-69
2022/05/26 13:53:17;;;;;;;9.93;2.70;;;19.90;90.40;;;;;;5113076;28;20040;-68
2022/05/26 13:55:49;;;;;;;9.50;2.40;;;19.80;89.10;;;;;;5113100;28;20402;-69
2022/05/26 13:58:18;;;;;;;8.43;2.20;;;19.60;90.20;;;;;;5113124;28;20079;-68